Fox Valley, Canada
Current Conditions -  °F | °C
As of 12:00 PM on Thursday 18 Dec 2014 (Local Time) from CYXH Reporting Station
Broken Clouds Broken Clouds  
Wind Chill: 18°   Ceiling: 13000
Heat Index: 18°   Visibility: 30mi
Dew Point: 16°   Wind: 2mph
Humidity: 93%   Direction: 90°E
Pressure: 29.87"   Gusts: NA
Location:  50.47°N, 109.48°W
Report Text: CYXH 181800Z 09002KT 30SM BKN130 BKN280 M08/M09 A2987 RMK AC5CI1 SLP153
Loading
Personal Weather Stations






























Interactive Weather Map New forecast layout! Learn more

10-Day Weather Forecast

Advertisements
Track Severe Weather on mobile